createdAt,value
2017-05-17T00:00:18.265Z,8.02
2017-05-17T00:02:44.949Z,8.17
2017-05-17T00:05:11.622Z,7.60
2017-05-17T00:07:38.294Z,7.87
2017-05-17T00:10:04.965Z,8.22
2017-05-17T00:12:31.638Z,7.15
2017-05-17T00:14:58.307Z,8.32
2017-05-17T00:17:24.981Z,7.50
2017-05-17T00:19:51.659Z,8.32
2017-05-17T00:22:18.336Z,7.20
2017-05-17T00:24:45.004Z,7.30
2017-05-17T00:27:11.673Z,7.47
2017-05-17T00:29:38.340Z,8.35
2017-05-17T00:32:05.020Z,6.73
2017-05-17T00:34:31.698Z,8.72
2017-05-17T00:37:04.249Z,7.45
2017-05-17T00:39:36.925Z,7.50
2017-05-17T00:42:09.424Z,8.33
2017-05-17T00:44:41.934Z,7.75
2017-05-17T00:47:14.461Z,7.45
2017-05-17T00:49:46.908Z,7.40
2017-05-17T00:52:13.582Z,7.07
2017-05-17T00:54:40.260Z,7.43
2017-05-17T00:57:06.934Z,10.53
2017-05-17T00:59:33.596Z,9.77
2017-05-17T01:02:00.268Z,7.02
2017-05-17T01:04:26.963Z,8.12
2017-05-17T01:06:53.637Z,7.92
2017-05-17T01:09:20.314Z,6.93
2017-05-17T01:11:46.986Z,7.70
2017-05-17T01:14:13.657Z,7.82
2017-05-17T01:16:40.332Z,8.05
2017-05-17T01:19:06.996Z,8.25
2017-05-17T01:21:33.707Z,8.27
2017-05-17T01:24:00.384Z,8.55
2017-05-17T01:26:27.056Z,7.68
2017-05-17T01:28:53.737Z,7.90
2017-05-17T01:31:20.409Z,7.62
2017-05-17T01:33:47.084Z,7.72
2017-05-17T01:36:13.761Z,7.23
2017-05-17T01:38:40.439Z,7.50
2017-05-17T01:41:07.103Z,8.78
2017-05-17T01:43:33.778Z,8.28
2017-05-17T01:46:00.450Z,7.28
2017-05-17T01:48:27.123Z,8.03
2017-05-17T01:50:53.794Z,8.53
2017-05-17T01:53:20.464Z,7.55
2017-05-17T01:55:47.128Z,7.62
2017-05-17T01:58:13.800Z,8.07
2017-05-17T02:00:40.476Z,7.75
2017-05-17T02:03:07.148Z,7.50
2017-05-17T02:05:33.825Z,8.02
2017-05-17T02:08:00.496Z,8.58
2017-05-17T02:10:27.163Z,7.30
2017-05-17T02:12:53.831Z,8.17
2017-05-17T02:15:20.504Z,7.52
2017-05-17T02:17:47.187Z,9.45
2017-05-17T02:20:13.864Z,7.58
2017-05-17T02:22:40.537Z,8.10
2017-05-17T02:25:07.209Z,7.07
2017-05-17T02:27:33.886Z,7.65
2017-05-17T02:30:00.557Z,8.65
2017-05-17T02:32:27.228Z,7.70
2017-05-17T02:34:53.905Z,12.08
2017-05-17T02:37:20.584Z,8.87
2017-05-17T02:39:47.258Z,9.55
2017-05-17T02:42:13.944Z,8.87
2017-05-17T02:44:40.617Z,8.07
2017-05-17T02:47:07.284Z,7.80
2017-05-17T02:49:33.948Z,8.77
2017-05-17T02:52:00.625Z,8.30
2017-05-17T02:54:27.297Z,7.45
2017-05-17T02:56:53.972Z,7.73
2017-05-17T02:59:20.644Z,7.32
2017-05-17T03:01:47.311Z,7.85
2017-05-17T03:04:13.980Z,8.42
2017-05-17T03:06:40.658Z,7.38
2017-05-17T03:09:07.348Z,7.72
2017-05-17T03:11:34.020Z,8.33
2017-05-17T03:14:00.716Z,7.77
2017-05-17T03:16:27.381Z,9.63
2017-05-17T03:18:54.091Z,7.48
2017-05-17T03:21:20.775Z,8.62
2017-05-17T03:23:47.453Z,13.42
2017-05-17T03:26:14.121Z,8.68
2017-05-17T03:28:40.797Z,10.48
2017-05-17T03:31:07.468Z,8.27
2017-05-17T03:33:34.138Z,8.97
2017-05-17T03:36:00.808Z,8.20
2017-05-17T03:38:27.479Z,8.47
2017-05-17T03:40:54.150Z,9.37
2017-05-17T03:43:20.820Z,9.28
2017-05-17T03:45:47.493Z,8.32
2017-05-17T03:48:14.165Z,7.95
2017-05-17T03:50:40.841Z,8.83
2017-05-17T03:53:07.512Z,7.78
2017-05-17T03:55:34.189Z,8.33
2017-05-17T03:58:00.892Z,8.40
2017-05-17T04:00:27.561Z,8.43
2017-05-17T04:02:54.234Z,7.90
2017-05-17T04:05:20.913Z,7.55
2017-05-17T04:07:47.592Z,8.12
2017-05-17T04:10:14.261Z,7.48
2017-05-17T04:12:40.940Z,8.37
2017-05-17T04:15:07.609Z,9.40
2017-05-17T04:17:34.284Z,8.35
2017-05-17T04:20:00.993Z,9.50
2017-05-17T04:22:27.663Z,7.42
2017-05-17T04:24:54.333Z,7.75
2017-05-17T04:27:21.006Z,8.05
2017-05-17T04:29:47.675Z,7.87
2017-05-17T04:32:14.353Z,11.22
2017-05-17T04:34:41.032Z,7.62
2017-05-17T04:37:07.706Z,7.93
2017-05-17T04:39:34.376Z,7.55
2017-05-17T04:42:01.059Z,8.25
2017-05-17T04:44:27.727Z,7.62
2017-05-17T04:46:54.396Z,8.53
2017-05-17T04:49:21.068Z,9.85
2017-05-17T04:51:47.743Z,8.20
2017-05-17T04:54:14.414Z,7.75
2017-05-17T04:56:41.085Z,8.25
2017-05-17T04:59:07.755Z,7.53
2017-05-17T05:01:34.468Z,8.47
2017-05-17T05:04:01.144Z,7.43
2017-05-17T05:06:27.820Z,7.30
2017-05-17T05:08:54.505Z,8.12
2017-05-17T05:11:21.177Z,7.80
2017-05-17T05:13:47.857Z,10.12
2017-05-17T05:16:14.523Z,8.73
2017-05-17T05:18:41.193Z,7.27
2017-05-17T05:21:07.862Z,7.88
2017-05-17T05:23:34.533Z,7.62
2017-05-17T05:26:01.245Z,8.20
2017-05-17T05:28:27.914Z,8.20
2017-05-17T05:30:54.579Z,8.02
2017-05-17T05:33:21.249Z,8.63
2017-05-17T05:35:47.917Z,7.48
2017-05-17T05:38:14.592Z,8.63
2017-05-17T05:40:41.267Z,7.55
2017-05-17T05:43:07.934Z,7.18
2017-05-17T05:45:34.612Z,7.55
2017-05-17T05:48:01.284Z,7.05
2017-05-17T05:50:27.964Z,9.63
2017-05-17T05:52:54.644Z,8.73
2017-05-17T05:55:21.322Z,8.07
2017-05-17T05:57:47.996Z,8.75
2017-05-17T06:00:14.667Z,8.60
2017-05-17T06:02:41.342Z,8.77
2017-05-17T06:05:08.033Z,8.05
2017-05-17T06:07:34.708Z,7.18
2017-05-17T06:10:01.396Z,7.50
2017-05-17T06:12:28.072Z,8.10
2017-05-17T06:14:54.757Z,10.17
2017-05-17T06:17:21.436Z,11.06
2017-05-17T06:19:48.100Z,7.78
2017-05-17T06:22:14.768Z,7.88
2017-05-17T06:24:41.431Z,7.10
2017-05-17T06:27:08.106Z,9.52
2017-05-17T06:29:34.773Z,7.90
2017-05-17T06:32:01.484Z,7.34
2017-05-17T06:34:28.149Z,7.88
2017-05-17T06:36:54.820Z,7.82
2017-05-17T06:39:21.491Z,6.82
2017-05-17T06:41:48.163Z,6.86
2017-05-17T06:44:14.835Z,6.68
2017-05-17T06:46:41.497Z,6.80
2017-05-17T06:49:08.163Z,6.82
2017-05-17T06:51:34.837Z,7.10
2017-05-17T06:54:01.508Z,6.50
2017-05-17T06:56:28.177Z,6.56
2017-05-17T06:58:54.844Z,7.08
2017-05-17T07:01:21.512Z,7.02
2017-05-17T07:03:48.188Z,7.16
2017-05-17T07:06:14.852Z,6.06
2017-05-17T07:08:41.524Z,6.92
2017-05-17T07:11:08.204Z,6.82
2017-05-17T07:13:34.908Z,7.58
2017-05-17T07:16:01.577Z,7.56
2017-05-17T07:18:28.252Z,7.02
2017-05-17T07:20:54.921Z,6.36
2017-05-17T07:23:21.583Z,5.68
2017-05-17T07:25:48.252Z,6.32
2017-05-17T07:28:14.916Z,6.66
2017-05-17T07:30:41.588Z,6.04
2017-05-17T07:33:08.254Z,6.18
2017-05-17T07:35:34.936Z,5.78
2017-05-17T07:38:01.602Z,6.08
2017-05-17T07:40:28.276Z,6.72
2017-05-17T07:42:54.949Z,5.44
2017-05-17T07:45:21.617Z,6.86
2017-05-17T07:47:48.289Z,6.34
2017-05-17T07:50:14.951Z,5.70
2017-05-17T07:52:41.629Z,6.48
2017-05-17T07:55:08.297Z,5.36
2017-05-17T07:57:35.269Z,5.86
2017-05-17T08:00:01.945Z,5.50
2017-05-17T08:02:28.618Z,6.96
2017-05-17T08:04:55.285Z,6.52
2017-05-17T08:07:21.957Z,6.50
2017-05-17T08:09:48.634Z,5.68
2017-05-17T08:12:15.306Z,6.18
2017-05-17T08:14:41.980Z,6.90
2017-05-17T08:17:08.648Z,8.08
2017-05-17T08:19:35.362Z,5.82
2017-05-17T08:22:02.032Z,5.26
2017-05-17T08:24:28.705Z,5.96
2017-05-17T08:26:55.365Z,6.02
2017-05-17T08:29:22.035Z,5.92
2017-05-17T08:31:48.705Z,5.56
2017-05-17T08:34:15.372Z,5.72
2017-05-17T08:36:42.041Z,5.22
2017-05-17T08:39:08.708Z,7.50
2017-05-17T08:41:35.377Z,5.74
2017-05-17T08:44:02.043Z,5.38
2017-05-17T08:46:28.721Z,5.66
2017-05-17T08:48:55.386Z,5.76
2017-05-17T08:51:22.061Z,5.86
2017-05-17T08:53:48.727Z,5.44
2017-05-17T08:56:15.392Z,5.06
2017-05-17T08:58:42.061Z,5.00
2017-05-17T09:01:08.725Z,6.52
2017-05-17T09:03:35.397Z,6.38
2017-05-17T09:06:02.080Z,4.74
2017-05-17T09:08:28.757Z,5.02
2017-05-17T09:10:55.431Z,5.68
2017-05-17T09:13:22.092Z,5.50
2017-05-17T09:15:48.756Z,5.50
2017-05-17T09:18:15.425Z,5.72
2017-05-17T09:20:42.092Z,5.58
2017-05-17T09:23:08.760Z,5.50
2017-05-17T09:25:35.437Z,5.08
2017-05-17T09:28:02.124Z,5.26
2017-05-17T09:30:28.792Z,5.10
2017-05-17T09:32:55.466Z,5.04
2017-05-17T09:35:22.138Z,6.76
2017-05-17T09:37:48.813Z,4.70
2017-05-17T09:40:15.478Z,6.64
2017-05-17T09:42:42.158Z,5.64
2017-05-17T09:45:08.835Z,6.32
2017-05-17T09:47:35.512Z,4.28
2017-05-17T09:50:02.193Z,4.74
2017-05-17T09:52:28.867Z,4.72
2017-05-17T09:54:55.538Z,4.46
2017-05-17T09:57:22.216Z,4.62
2017-05-17T09:59:48.885Z,5.38
2017-05-17T10:02:15.553Z,4.72
2017-05-17T10:04:42.225Z,4.10
2017-05-17T10:07:08.905Z,4.00
2017-05-17T10:09:35.572Z,8.98
2017-05-17T10:12:02.245Z,4.26
2017-05-17T10:14:28.926Z,4.06
2017-05-17T10:16:55.608Z,4.06
2017-05-17T10:19:22.280Z,4.76
2017-05-17T10:21:48.948Z,4.06
2017-05-17T10:24:15.621Z,3.64
2017-05-17T10:26:42.293Z,5.42
2017-05-17T10:29:08.965Z,3.96
2017-05-17T10:31:35.635Z,7.24
2017-05-17T10:34:02.304Z,3.92
2017-05-17T10:36:29.008Z,8.70
2017-05-17T10:38:55.680Z,3.84
2017-05-17T10:41:22.350Z,4.36
2017-05-17T10:43:49.047Z,3.66
2017-05-17T10:46:15.716Z,3.60
2017-05-17T10:48:42.393Z,3.86
2017-05-17T10:51:09.066Z,4.10
2017-05-17T10:53:35.737Z,3.78
2017-05-17T10:56:02.412Z,3.70
2017-05-17T10:58:29.085Z,3.82
2017-05-17T11:00:55.760Z,4.24
2017-05-17T11:03:23.405Z,5.06
2017-05-17T11:05:50.096Z,4.18
2017-05-17T11:08:16.784Z,3.78
2017-05-17T11:10:43.460Z,4.00
2017-05-17T11:13:10.137Z,4.70
2017-05-17T11:15:36.812Z,16.60
2017-05-17T11:18:03.484Z,5.68
2017-05-17T11:20:30.161Z,4.16
2017-05-17T11:22:56.840Z,4.16
2017-05-17T11:25:23.504Z,4.10
2017-05-17T11:27:50.184Z,4.12
2017-05-17T11:30:16.853Z,4.40
2017-05-17T11:32:43.531Z,3.80
2017-05-17T11:35:10.209Z,3.96
2017-05-17T11:37:36.891Z,4.16
2017-05-17T11:40:03.571Z,4.08
2017-05-17T11:42:30.248Z,3.92
2017-05-17T11:44:56.933Z,3.72
2017-05-17T11:47:23.645Z,4.10
2017-05-17T11:49:50.311Z,4.36
2017-05-17T11:52:16.986Z,4.00
2017-05-17T11:54:43.671Z,4.12
2017-05-17T11:57:10.349Z,3.80
2017-05-17T11:59:37.013Z,4.04
2017-05-17T12:02:03.694Z,4.74
2017-05-17T12:04:30.372Z,3.90
2017-05-17T12:06:57.047Z,4.26
2017-05-17T12:09:23.709Z,4.06
2017-05-17T12:11:50.390Z,4.12
2017-05-17T12:14:17.067Z,4.94
2017-05-17T12:16:43.728Z,4.20
2017-05-17T12:19:10.407Z,3.88
2017-05-17T12:21:37.081Z,4.90
2017-05-17T12:24:03.749Z,3.80
2017-05-17T12:26:30.424Z,4.46
2017-05-17T12:28:57.084Z,4.70
2017-05-17T12:31:23.762Z,4.20
2017-05-17T12:33:50.432Z,4.14
2017-05-17T12:36:17.105Z,4.44
2017-05-17T12:38:43.776Z,5.16
2017-05-17T12:41:10.447Z,4.14
2017-05-17T12:43:37.108Z,5.08
2017-05-17T12:46:03.773Z,4.00
2017-05-17T12:48:30.440Z,4.26
2017-05-17T12:50:57.112Z,3.98
2017-05-17T12:53:23.780Z,4.04
2017-05-17T12:55:50.453Z,5.62
2017-05-17T12:58:17.120Z,6.18
2017-05-17T13:00:43.785Z,5.40
2017-05-17T13:03:10.448Z,4.42
2017-05-17T13:05:37.124Z,5.50
2017-05-17T13:08:03.797Z,4.58
2017-05-17T13:10:30.460Z,4.42
2017-05-17T13:12:57.133Z,5.32
2017-05-17T13:15:23.806Z,5.00
2017-05-17T13:17:50.480Z,5.40
2017-05-17T13:20:17.148Z,4.60
2017-05-17T13:22:43.820Z,4.30
2017-05-17T13:25:10.485Z,4.38
2017-05-17T13:27:37.161Z,4.94
2017-05-17T13:30:03.836Z,4.76
2017-05-17T13:32:30.504Z,4.82
2017-05-17T13:34:57.180Z,4.86
2017-05-17T13:37:23.840Z,4.66
2017-05-17T13:39:50.517Z,4.38
2017-05-17T13:42:17.195Z,4.68
2017-05-17T13:44:43.866Z,4.66
2017-05-17T13:47:10.529Z,5.98
2017-05-17T13:49:37.192Z,4.64
2017-05-17T13:52:03.856Z,4.88
2017-05-17T13:54:30.520Z,4.64
2017-05-17T13:56:57.190Z,4.86
2017-05-17T13:59:23.860Z,7.10
2017-05-17T14:01:50.891Z,4.76
2017-05-17T14:04:17.553Z,4.90
2017-05-17T14:06:44.228Z,6.02
2017-05-17T14:09:10.900Z,4.68
2017-05-17T14:11:37.570Z,5.20
2017-05-17T14:14:04.232Z,4.68
2017-05-17T14:16:30.899Z,6.70
2017-05-17T14:18:57.569Z,5.58
2017-05-17T14:21:24.284Z,5.30
2017-05-17T14:23:50.949Z,5.14
2017-05-17T14:26:17.632Z,5.76
2017-05-17T14:28:44.296Z,7.64
2017-05-17T14:31:10.976Z,4.80
2017-05-17T14:33:37.643Z,5.20
2017-05-17T14:36:04.320Z,5.18
2017-05-17T14:38:30.991Z,5.32
2017-05-17T14:40:57.690Z,6.52
2017-05-17T14:43:24.362Z,6.90
2017-05-17T14:45:51.034Z,6.18
2017-05-17T14:48:17.703Z,5.36
2017-05-17T14:50:44.368Z,5.14
2017-05-17T14:53:11.039Z,4.80
2017-05-17T14:55:37.716Z,5.58
2017-05-17T14:58:04.391Z,5.20
2017-05-17T15:00:31.113Z,4.92
2017-05-17T15:02:57.796Z,5.72
2017-05-17T15:05:24.468Z,6.38
2017-05-17T15:07:51.139Z,5.32
2017-05-17T15:10:17.809Z,4.42
2017-05-17T15:12:44.484Z,5.76
2017-05-17T15:15:11.167Z,4.94
2017-05-17T15:17:37.834Z,5.82
2017-05-17T15:20:04.513Z,5.88
2017-05-17T15:22:31.185Z,4.90
2017-05-17T15:24:57.856Z,4.78
2017-05-17T15:27:24.525Z,4.98
2017-05-17T15:29:51.191Z,4.58
2017-05-17T15:32:17.862Z,4.54
2017-05-17T15:34:44.537Z,4.42
2017-05-17T15:37:11.212Z,4.62
2017-05-17T15:39:37.892Z,5.60
2017-05-17T15:42:04.564Z,4.98
2017-05-17T15:44:31.231Z,8.46
2017-05-17T15:46:57.911Z,5.32
2017-05-17T15:49:24.588Z,4.84
2017-05-17T15:51:51.249Z,4.36
2017-05-17T15:54:17.930Z,4.46
2017-05-17T15:56:44.601Z,4.54
2017-05-17T15:59:11.292Z,4.88
2017-05-17T16:01:37.956Z,5.34
2017-05-17T16:04:04.626Z,5.56
2017-05-17T16:06:31.296Z,4.88
2017-05-17T16:09:02.231Z,5.94
2017-05-17T16:11:28.905Z,5.44
2017-05-17T16:13:55.572Z,5.12
2017-05-17T16:16:22.319Z,5.10
2017-05-17T16:18:48.998Z,5.00
2017-05-17T16:21:15.679Z,4.84
2017-05-17T16:23:42.349Z,5.38
2017-05-17T16:26:09.016Z,5.58
2017-05-17T16:28:35.691Z,6.68
2017-05-17T16:31:02.357Z,5.64
2017-05-17T16:33:29.020Z,5.70
2017-05-17T16:35:55.690Z,4.76
2017-05-17T16:38:22.408Z,12.38
2017-05-17T16:40:49.076Z,5.88
2017-05-17T16:43:15.758Z,6.36
2017-05-17T16:45:42.427Z,5.56
2017-05-17T16:48:09.105Z,5.66
2017-05-17T16:50:37.759Z,6.36
2017-05-17T16:53:04.582Z,9.36
2017-05-17T16:55:31.280Z,6.64
2017-05-17T16:57:57.948Z,6.16
2017-05-17T17:00:24.810Z,5.54
2017-05-17T17:02:51.819Z,6.56
2017-05-17T17:05:21.213Z,6.08
2017-05-17T17:07:48.129Z,5.78
2017-05-17T17:10:14.977Z,6.64
2017-05-17T17:12:41.687Z,5.74
2017-05-17T17:15:08.358Z,6.88
2017-05-17T17:17:35.029Z,6.18
2017-05-17T17:20:01.702Z,8.84
2017-05-17T17:22:28.376Z,6.84
2017-05-17T17:24:55.052Z,5.50
2017-05-17T17:27:21.721Z,5.12
2017-05-17T17:29:48.403Z,4.90
2017-05-17T17:32:15.076Z,5.20
2017-05-17T17:34:41.744Z,5.32
2017-05-17T17:37:08.417Z,6.02
2017-05-17T17:39:35.080Z,5.46
2017-05-17T17:42:01.752Z,5.26
2017-05-17T17:44:28.449Z,8.04
2017-05-17T17:46:55.123Z,5.86
2017-05-17T17:49:21.835Z,5.22
2017-05-17T17:51:48.517Z,5.54
2017-05-17T17:54:15.184Z,5.14
2017-05-17T17:56:41.855Z,5.08
2017-05-17T17:59:08.537Z,6.82
2017-05-17T18:01:35.209Z,5.32
2017-05-17T18:04:01.876Z,5.28
2017-05-17T18:06:28.548Z,10.92
2017-05-17T18:08:55.257Z,8.14
2017-05-17T18:11:21.930Z,6.10
2017-05-17T18:13:48.603Z,5.44
2017-05-17T18:16:15.277Z,5.92
2017-05-17T18:18:42.740Z,6.22
2017-05-17T18:21:09.415Z,11.78
2017-05-17T18:23:36.086Z,5.96
2017-05-17T18:26:02.759Z,6.04
2017-05-17T18:28:29.440Z,6.14
2017-05-17T18:30:56.133Z,6.76
2017-05-17T18:33:23.213Z,5.50
2017-05-17T18:35:49.888Z,6.36
2017-05-17T18:38:16.562Z,6.12
2017-05-17T18:40:43.236Z,5.88
2017-05-17T18:43:09.900Z,5.56
2017-05-17T18:45:36.573Z,5.54
2017-05-17T18:48:04.716Z,5.70
2017-05-17T18:50:31.424Z,5.48
2017-05-17T18:52:58.204Z,5.36
2017-05-17T18:55:24.869Z,7.40
2017-05-17T18:57:51.531Z,6.66
2017-05-17T19:00:18.197Z,8.46
2017-05-17T19:02:44.867Z,6.46
2017-05-17T19:05:11.561Z,6.78
2017-05-17T19:07:38.241Z,7.24
2017-05-17T19:10:04.917Z,5.78
2017-05-17T19:12:31.587Z,5.70
2017-05-17T19:14:58.257Z,5.92
2017-05-17T19:17:24.932Z,6.36
2017-05-17T19:19:51.601Z,6.74
2017-05-17T19:22:18.268Z,6.34
2017-05-17T19:24:44.936Z,6.60
2017-05-17T19:27:11.607Z,6.78
2017-05-17T19:29:38.275Z,6.58
2017-05-17T19:32:04.950Z,7.06
2017-05-17T19:34:31.613Z,7.66
2017-05-17T19:36:58.283Z,6.58
2017-05-17T19:39:24.953Z,7.04
2017-05-17T19:41:51.631Z,6.90
2017-05-17T19:44:18.309Z,7.26
2017-05-17T19:46:45.036Z,7.34
2017-05-17T19:49:11.693Z,7.86
2017-05-17T19:51:38.378Z,7.57
2017-05-17T19:54:05.051Z,7.46
2017-05-17T19:56:31.724Z,7.62
2017-05-17T19:58:58.393Z,8.78
2017-05-17T20:01:25.062Z,7.54
2017-05-17T20:03:51.739Z,7.50
2017-05-17T20:06:18.454Z,8.55
2017-05-17T20:08:45.142Z,8.32
2017-05-17T20:11:11.826Z,8.35
2017-05-17T20:13:38.507Z,8.12
2017-05-17T20:16:05.373Z,8.17
2017-05-17T20:18:32.052Z,9.17
2017-05-17T20:20:58.727Z,9.02
2017-05-17T20:23:25.414Z,12.65
2017-05-17T20:25:52.098Z,9.65
2017-05-17T20:28:18.789Z,8.23
2017-05-17T20:30:45.479Z,9.50
2017-05-17T20:33:12.162Z,9.15
2017-05-17T20:35:38.835Z,9.15
2017-05-17T20:38:05.508Z,9.75
2017-05-17T20:40:33.108Z,10.38
2017-05-17T20:42:59.793Z,9.88
2017-05-17T20:45:26.476Z,9.18
2017-05-17T20:47:53.158Z,9.88
2017-05-17T20:50:19.844Z,10.97
2017-05-17T20:52:46.577Z,10.32
2017-05-17T20:55:13.252Z,9.55
2017-05-17T20:57:39.935Z,10.23
2017-05-17T21:00:06.619Z,10.53
2017-05-17T21:02:33.336Z,9.58
2017-05-17T21:05:00.008Z,9.90
2017-05-17T21:07:26.687Z,10.47
2017-05-17T21:09:53.364Z,9.92
2017-05-17T21:12:20.056Z,10.00
2017-05-17T21:14:46.766Z,10.43
2017-05-17T21:17:13.448Z,10.58
2017-05-17T21:19:40.129Z,10.00
2017-05-17T21:22:06.810Z,11.30
2017-05-17T21:24:33.501Z,10.97
2017-05-17T21:27:03.429Z,11.28
2017-05-17T21:29:30.586Z,11.58
2017-05-17T21:31:57.264Z,11.30
2017-05-17T21:34:23.948Z,11.37
2017-05-17T21:36:50.632Z,11.43
2017-05-17T21:39:17.325Z,11.07
2017-05-17T21:41:44.022Z,11.87
2017-05-17T21:44:10.731Z,10.72
2017-05-17T21:46:37.437Z,11.55
2017-05-17T21:49:04.120Z,11.90
2017-05-17T21:51:30.798Z,10.02
2017-05-17T21:53:57.468Z,10.60
2017-05-17T21:56:24.140Z,11.38
2017-05-17T21:58:50.816Z,10.93
2017-05-17T22:01:17.496Z,11.27
2017-05-17T22:03:44.164Z,9.83
2017-05-17T22:06:10.836Z,11.23
2017-05-17T22:08:37.513Z,11.77
2017-05-17T22:11:04.188Z,12.02
2017-05-17T22:13:30.897Z,11.10
2017-05-17T22:15:57.576Z,11.28
2017-05-17T22:18:24.309Z,11.15
2017-05-17T22:20:50.974Z,11.43
2017-05-17T22:23:17.652Z,12.02
2017-05-17T22:25:44.323Z,10.72
2017-05-17T22:28:10.993Z,11.40
2017-05-17T22:30:37.668Z,10.83
2017-05-17T22:33:04.352Z,12.28
2017-05-17T22:35:31.029Z,11.75
2017-05-17T22:37:57.708Z,12.03
2017-05-17T22:40:24.434Z,12.25
2017-05-17T22:42:51.115Z,11.87
2017-05-17T22:45:17.789Z,11.15
2017-05-17T22:47:44.460Z,13.52
2017-05-17T22:50:11.136Z,10.75
2017-05-17T22:52:37.842Z,15.07
2017-05-17T22:55:04.520Z,11.40
2017-05-17T22:57:31.224Z,12.30
2017-05-17T22:59:57.901Z,11.82
2017-05-17T23:02:24.609Z,11.83
2017-05-17T23:04:51.288Z,12.25
2017-05-17T23:07:17.972Z,13.90
2017-05-17T23:09:44.648Z,13.68
2017-05-17T23:12:11.324Z,13.53
2017-05-17T23:14:38.028Z,14.17
2017-05-17T23:17:04.704Z,13.30
2017-05-17T23:19:31.404Z,12.98
2017-05-17T23:21:58.089Z,14.00
2017-05-17T23:24:24.796Z,13.70
2017-05-17T23:26:51.473Z,13.28
2017-05-17T23:29:18.188Z,14.55
2017-05-17T23:31:44.863Z,13.52
2017-05-17T23:34:11.541Z,14.23
2017-05-17T23:36:38.220Z,13.93
2017-05-17T23:39:04.914Z,13.53
2017-05-17T23:41:31.603Z,13.42
2017-05-17T23:43:58.289Z,14.43
2017-05-17T23:46:24.991Z,15.02
2017-05-17T23:48:51.663Z,13.90
2017-05-17T23:51:18.356Z,13.28
2017-05-17T23:53:45.032Z,12.92
2017-05-17T23:56:11.753Z,12.13
2017-05-17T23:58:38.438Z,13.45
